sensor_id;sensor_type;location;lat;lon;timestamp;pressure;altitude;pressure_sealevel;temperature;humidity
32243;BME280;18731;42.830;24.390;2023-05-24T02:59:31;94371.44;;;9.60;82.35
32243;BME280;18731;42.830;24.390;2023-05-24T03:01:58;94389.72;;;9.71;82.12
32243;BME280;18731;42.830;24.390;2023-05-24T03:04:23;94381.72;;;9.71;82.11
32243;BME280;18731;42.830;24.390;2023-05-24T03:06:49;94388.59;;;9.72;82.05
32243;BME280;18731;42.830;24.390;2023-05-24T03:09:15;94389.19;;;9.77;81.72
32243;BME280;18731;42.830;24.390;2023-05-24T03:11:41;94385.09;;;9.80;81.20
32243;BME280;18731;42.830;24.390;2023-05-24T03:14:07;94383.28;;;9.72;81.43
32243;BME280;18731;42.830;24.390;2023-05-24T03:16:35;94350.19;;;9.52;81.50
32243;BME280;18731;42.830;24.390;2023-05-24T03:19:01;94390.88;;;9.82;81.14
32243;BME280;18731;42.830;24.390;2023-05-24T03:21:27;94387.44;;;9.81;81.58
32243;BME280;18731;42.830;24.390;2023-05-24T03:23:52;94394.66;;;9.81;81.26
32243;BME280;18731;42.830;24.390;2023-05-24T03:26:18;94398.88;;;9.82;83.51
32243;BME280;18731;42.830;24.390;2023-05-24T03:28:45;94398.16;;;9.73;82.27
32243;BME280;18731;42.830;24.390;2023-05-24T03:31:12;94396.59;;;9.72;83.06
32243;BME280;18731;42.830;24.390;2023-05-24T03:33:38;94394.19;;;9.79;82.97
32243;BME280;18731;42.830;24.390;2023-05-24T03:36:04;94371.38;;;9.69;82.48
32243;BME280;18731;42.830;24.390;2023-05-24T03:38:31;94395.25;;;9.86;82.44
32243;BME280;18731;42.830;24.390;2023-05-24T03:40:58;94398.38;;;9.88;82.60
32243;BME280;18731;42.830;24.390;2023-05-24T03:43:24;94401.94;;;9.92;82.55
32243;BME280;18731;42.830;24.390;2023-05-24T03:45:50;94402.06;;;9.96;82.34
32243;BME280;18731;42.830;24.390;2023-05-24T03:48:16;94397.97;;;9.98;82.62
32243;BME280;18731;42.830;24.390;2023-05-24T03:50:43;94400.19;;;9.96;82.48
32243;BME280;18731;42.830;24.390;2023-05-24T03:53:08;94407.66;;;10.03;82.37
32243;BME280;18731;42.830;24.390;2023-05-24T03:55:37;94389.78;;;10.04;82.64
32243;BME280;18731;42.830;24.390;2023-05-24T03:58:03;94405.38;;;10.14;82.42
32243;BME280;18731;42.830;24.390;2023-05-24T04:00:29;94390.50;;;10.13;82.42
32243;BME280;18731;42.830;24.390;2023-05-24T04:02:55;94389.50;;;10.17;82.52
32243;BME280;18731;42.830;24.390;2023-05-24T04:05:21;94401.13;;;10.21;82.89
32243;BME280;18731;42.830;24.390;2023-05-24T04:07:51;94394.38;;;10.15;83.41
32243;BME280;18731;42.830;24.390;2023-05-24T04:10:17;94398.56;;;10.25;83.19
32243;BME280;18731;42.830;24.390;2023-05-24T04:12:43;94390.25;;;10.26;83.49
32243;BME280;18731;42.830;24.390;2023-05-24T04:15:10;94395.16;;;10.37;83.36
32243;BME280;18731;42.830;24.390;2023-05-24T04:17:43;94397.00;;;10.45;83.24
32243;BME280;18731;42.830;24.390;2023-05-24T04:20:10;94383.13;;;10.51;83.42
32243;BME280;18731;42.830;24.390;2023-05-24T04:22:37;94398.19;;;10.68;83.64
32243;BME280;18731;42.830;24.390;2023-05-24T04:25:03;94397.88;;;10.82;83.81
32243;BME280;18731;42.830;24.390;2023-05-24T04:27:29;94396.69;;;10.91;83.38
32243;BME280;18731;42.830;24.390;2023-05-24T04:29:55;94390.00;;;10.98;83.49
32243;BME280;18731;42.830;24.390;2023-05-24T04:32:23;94396.25;;;11.26;83.35
32243;BME280;18731;42.830;24.390;2023-05-24T04:34:50;94389.81;;;11.39;83.19
32243;BME280;18731;42.830;24.390;2023-05-24T04:37:17;94399.38;;;11.52;83.09
32243;BME280;18731;42.830;24.390;2023-05-24T04:39:43;94395.03;;;11.60;83.30
32243;BME280;18731;42.830;24.390;2023-05-24T04:42:11;94403.03;;;11.72;83.56
32243;BME280;18731;42.830;24.390;2023-05-24T04:44:39;94411.94;;;11.88;82.52
32243;BME280;18731;42.830;24.390;2023-05-24T04:47:05;94404.66;;;12.01;82.57
32243;BME280;18731;42.830;24.390;2023-05-24T04:49:30;94396.38;;;12.18;82.07
32243;BME280;18731;42.830;24.390;2023-05-24T04:51:56;94400.84;;;12.42;81.75
32243;BME280;18731;42.830;24.390;2023-05-24T04:54:22;94403.34;;;12.63;81.13
32243;BME280;18731;42.830;24.390;2023-05-24T04:56:49;94404.66;;;12.85;81.24
32243;BME280;18731;42.830;24.390;2023-05-24T04:59:14;94406.69;;;13.04;79.87
32243;BME280;18731;42.830;24.390;2023-05-24T05:01:40;94403.94;;;13.16;79.47
32243;BME280;18731;42.830;24.390;2023-05-24T05:04:06;94408.56;;;13.31;79.21
32243;BME280;18731;42.830;24.390;2023-05-24T05:06:32;94411.50;;;13.42;78.91
32243;BME280;18731;42.830;24.390;2023-05-24T05:09:03;94406.53;;;13.60;79.32
32243;BME280;18731;42.830;24.390;2023-05-24T05:11:29;94391.84;;;13.54;79.61
32243;BME280;18731;42.830;24.390;2023-05-24T05:13:55;94402.19;;;13.71;79.67
32243;BME280;18731;42.830;24.390;2023-05-24T05:16:21;94400.53;;;13.82;79.50
32243;BME280;18731;42.830;24.390;2023-05-24T05:18:47;94395.63;;;14.03;79.31
32243;BME280;18731;42.830;24.390;2023-05-24T05:21:12;94398.13;;;14.31;79.26
32243;BME280;18731;42.830;24.390;2023-05-24T05:23:38;94382.25;;;14.42;79.19
32243;BME280;18731;42.830;24.390;2023-05-24T05:26:04;94387.44;;;14.73;78.91
32243;BME280;18731;42.830;24.390;2023-05-24T05:28:31;94393.97;;;14.95;77.81
32243;BME280;18731;42.830;24.390;2023-05-24T05:30:57;94394.47;;;15.01;78.05
32243;BME280;18731;42.830;24.390;2023-05-24T05:33:23;94385.84;;;15.15;77.48
32243;BME280;18731;42.830;24.390;2023-05-24T05:35:49;94395.88;;;15.40;76.32
32243;BME280;18731;42.830;24.390;2023-05-24T05:38:15;94393.00;;;15.53;77.41
32243;BME280;18731;42.830;24.390;2023-05-24T05:40:40;94387.63;;;15.75;75.73
32243;BME280;18731;42.830;24.390;2023-05-24T05:43:06;94393.63;;;15.92;75.64
32243;BME280;18731;42.830;24.390;2023-05-24T05:45:33;94391.91;;;16.06;75.02
32243;BME280;18731;42.830;24.390;2023-05-24T05:47:59;94386.63;;;16.14;74.59
32243;BME280;18731;42.830;24.390;2023-05-24T05:50:24;94357.00;;;16.14;73.82
32243;BME280;18731;42.830;24.390;2023-05-24T05:52:50;94394.75;;;16.51;73.49
32243;BME280;18731;42.830;24.390;2023-05-24T05:55:16;94386.91;;;16.68;71.38
32243;BME280;18731;42.830;24.390;2023-05-24T05:57:42;94396.03;;;16.94;70.81
32243;BME280;18731;42.830;24.390;2023-05-24T06:00:08;94382.31;;;17.10;70.19
32243;BME280;18731;42.830;24.390;2023-05-24T06:02:34;94389.81;;;17.30;69.16
32243;BME280;18731;42.830;24.390;2023-05-24T06:05:00;94393.06;;;17.50;70.94
32243;BME280;18731;42.830;24.390;2023-05-24T06:07:25;94385.09;;;17.64;69.85
32243;BME280;18731;42.830;24.390;2023-05-24T06:09:51;94375.63;;;17.88;68.33
32243;BME280;18731;42.830;24.390;2023-05-24T06:12:16;94388.50;;;18.13;68.58
32243;BME280;18731;42.830;24.390;2023-05-24T06:14:42;94385.91;;;18.30;68.08
32243;BME280;18731;42.830;24.390;2023-05-24T06:17:08;94384.03;;;18.38;66.81
32243;BME280;18731;42.830;24.390;2023-05-24T06:19:34;94382.91;;;18.46;67.15
32243;BME280;18731;42.830;24.390;2023-05-24T06:21:59;94385.72;;;18.75;66.06
32243;BME280;18731;42.830;24.390;2023-05-24T06:24:26;94384.19;;;18.81;64.77
32243;BME280;18731;42.830;24.390;2023-05-24T06:26:53;94384.25;;;19.02;63.14
32243;BME280;18731;42.830;24.390;2023-05-24T06:29:19;94382.72;;;19.08;61.09
32243;BME280;18731;42.830;24.390;2023-05-24T06:31:46;94376.94;;;19.24;58.53
32243;BME280;18731;42.830;24.390;2023-05-24T06:34:12;94385.84;;;19.42;61.66
32243;BME280;18731;42.830;24.390;2023-05-24T06:36:41;94383.91;;;19.85;61.94
32243;BME280;18731;42.830;24.390;2023-05-24T06:39:08;94381.94;;;20.04;55.30
32243;BME280;18731;42.830;24.390;2023-05-24T06:41:34;94382.28;;;20.27;55.69
32243;BME280;18731;42.830;24.390;2023-05-24T06:44:00;94381.81;;;20.61;53.00
32243;BME280;18731;42.830;24.390;2023-05-24T06:46:26;94377.06;;;20.86;51.19
32243;BME280;18731;42.830;24.390;2023-05-24T06:48:52;94383.53;;;21.06;50.77
32243;BME280;18731;42.830;24.390;2023-05-24T06:51:17;94370.34;;;21.08;48.69
32243;BME280;18731;42.830;24.390;2023-05-24T06:53:43;94372.31;;;21.04;50.69
32243;BME280;18731;42.830;24.390;2023-05-24T06:56:09;94380.03;;;21.09;49.92
32243;BME280;18731;42.830;24.390;2023-05-24T06:58:35;94364.50;;;21.13;48.84
32243;BME280;18731;42.830;24.390;2023-05-24T07:01:01;94369.94;;;21.10;49.76
32243;BME280;18731;42.830;24.390;2023-05-24T07:03:29;94375.34;;;21.13;49.43
32243;BME280;18731;42.830;24.390;2023-05-24T07:05:56;94371.47;;;21.11;49.63
32243;BME280;18731;42.830;24.390;2023-05-24T07:08:23;94359.41;;;21.23;50.93
32243;BME280;18731;42.830;24.390;2023-05-24T07:10:49;94367.09;;;21.35;50.41
32243;BME280;18731;42.830;24.390;2023-05-24T07:13:16;94355.81;;;21.40;47.83
32243;BME280;18731;42.830;24.390;2023-05-24T07:15:42;94365.81;;;21.50;48.85
32243;BME280;18731;42.830;24.390;2023-05-24T07:18:07;94343.09;;;21.30;49.52
32243;BME280;18731;42.830;24.390;2023-05-24T07:20:33;94345.75;;;21.37;47.40
32243;BME280;18731;42.830;24.390;2023-05-24T07:22:59;94361.53;;;21.49;48.97
32243;BME280;18731;42.830;24.390;2023-05-24T07:25:26;94364.78;;;21.78;50.18
32243;BME280;18731;42.830;24.390;2023-05-24T07:27:52;94353.75;;;21.96;48.82
32243;BME280;18731;42.830;24.390;2023-05-24T07:30:18;94362.44;;;22.21;47.35
32243;BME280;18731;42.830;24.390;2023-05-24T07:32:44;94354.50;;;22.37;45.71
32243;BME280;18731;42.830;24.390;2023-05-24T07:35:11;94357.00;;;22.55;46.62
32243;BME280;18731;42.830;24.390;2023-05-24T07:37:40;94355.88;;;22.53;47.15
32243;BME280;18731;42.830;24.390;2023-05-24T07:40:07;94364.28;;;22.31;46.65
32243;BME280;18731;42.830;24.390;2023-05-24T07:42:36;94369.19;;;22.09;51.36
32243;BME280;18731;42.830;24.390;2023-05-24T07:45:02;94372.41;;;21.94;53.73
32243;BME280;18731;42.830;24.390;2023-05-24T07:47:28;94367.38;;;21.92;55.91
32243;BME280;18731;42.830;24.390;2023-05-24T07:49:53;94362.34;;;21.46;56.71
32243;BME280;18731;42.830;24.390;2023-05-24T07:52:19;94377.53;;;21.40;57.30
32243;BME280;18731;42.830;24.390;2023-05-24T07:54:45;94381.16;;;21.15;57.81
32243;BME280;18731;42.830;24.390;2023-05-24T07:57:11;94373.94;;;20.91;59.02
32243;BME280;18731;42.830;24.390;2023-05-24T07:59:37;94377.06;;;20.86;59.78
32243;BME280;18731;42.830;24.390;2023-05-24T08:02:03;94377.84;;;20.83;58.87
32243;BME280;18731;42.830;24.390;2023-05-24T08:04:30;94380.09;;;20.95;59.36
32243;BME280;18731;42.830;24.390;2023-05-24T08:06:58;94378.94;;;20.96;61.03
32243;BME280;18731;42.830;24.390;2023-05-24T08:09:26;94377.03;;;20.93;62.36
32243;BME280;18731;42.830;24.390;2023-05-24T08:11:54;94376.31;;;20.82;62.53
32243;BME280;18731;42.830;24.390;2023-05-24T08:14:21;94376.78;;;20.59;61.92
32243;BME280;18731;42.830;24.390;2023-05-24T08:16:48;94372.56;;;20.47;62.21
32243;BME280;18731;42.830;24.390;2023-05-24T08:19:13;94381.47;;;20.44;63.07
32243;BME280;18731;42.830;24.390;2023-05-24T08:21:39;94386.50;;;20.35;63.39
32243;BME280;18731;42.830;24.390;2023-05-24T08:24:06;94384.25;;;20.16;65.47
32243;BME280;18731;42.830;24.390;2023-05-24T08:26:32;94379.28;;;19.89;66.04
32243;BME280;18731;42.830;24.390;2023-05-24T08:28:58;94381.59;;;19.80;66.92
32243;BME280;18731;42.830;24.390;2023-05-24T08:31:24;94388.19;;;19.83;66.84
32243;BME280;18731;42.830;24.390;2023-05-24T08:33:50;94386.25;;;19.73;67.08
32243;BME280;18731;42.830;24.390;2023-05-24T08:36:17;94383.56;;;19.62;67.68
32243;BME280;18731;42.830;24.390;2023-05-24T08:38:43;94389.72;;;19.80;65.70
32243;BME280;18731;42.830;24.390;2023-05-24T08:41:09;94393.19;;;19.99;65.38
32243;BME280;18731;42.830;24.390;2023-05-24T08:43:37;94384.28;;;20.02;61.64
32243;BME280;18731;42.830;24.390;2023-05-24T08:46:03;94395.47;;;20.14;63.13
32243;BME280;18731;42.830;24.390;2023-05-24T08:48:30;94389.53;;;20.62;62.89
32243;BME280;18731;42.830;24.390;2023-05-24T08:50:57;94390.09;;;21.12;63.22
32243;BME280;18731;42.830;24.390;2023-05-24T08:53:23;94399.25;;;21.36;58.82
32243;BME280;18731;42.830;24.390;2023-05-24T08:55:49;94338.84;;;21.22;57.59
32243;BME280;18731;42.830;24.390;2023-05-24T08:58:18;94383.56;;;21.62;55.88
32243;BME280;18731;42.830;24.390;2023-05-24T09:00:44;94392.91;;;21.57;54.46
32243;BME280;18731;42.830;24.390;2023-05-24T09:03:10;94376.66;;;21.50;56.50
32243;BME280;18731;42.830;24.390;2023-05-24T09:05:40;94390.53;;;21.63;58.23
32243;BME280;18731;42.830;24.390;2023-05-24T09:08:07;94380.38;;;21.70;56.82
32243;BME280;18731;42.830;24.390;2023-05-24T09:10:35;94391.69;;;22.10;55.88
32243;BME280;18731;42.830;24.390;2023-05-24T09:13:01;94380.88;;;22.03;55.47
32243;BME280;18731;42.830;24.390;2023-05-24T09:15:27;94394.25;;;21.83;56.04
32243;BME280;18731;42.830;24.390;2023-05-24T09:17:53;94386.72;;;21.53;55.71
32243;BME280;18731;42.830;24.390;2023-05-24T09:20:20;94396.81;;;21.53;56.95
32243;BME280;18731;42.830;24.390;2023-05-24T09:22:50;94399.19;;;21.47;57.83
32243;BME280;18731;42.830;24.390;2023-05-24T09:25:18;94398.88;;;21.38;57.15
32243;BME280;18731;42.830;24.390;2023-05-24T09:27:51;94393.53;;;21.24;57.60
32243;BME280;18731;42.830;24.390;2023-05-24T09:30:18;94388.13;;;21.16;58.15
32243;BME280;18731;42.830;24.390;2023-05-24T09:32:54;94394.00;;;21.04;58.59
32243;BME280;18731;42.830;24.390;2023-05-24T09:35:21;94396.31;;;21.06;58.64
32243;BME280;18731;42.830;24.390;2023-05-24T09:37:47;94405.63;;;21.08;58.28
32243;BME280;18731;42.830;24.390;2023-05-24T09:40:22;94402.09;;;21.15;58.99
32243;BME280;18731;42.830;24.390;2023-05-24T09:42:48;94404.00;;;21.25;58.62
32243;BME280;18731;42.830;24.390;2023-05-24T09:45:26;94400.81;;;21.37;58.56
32243;BME280;18731;42.830;24.390;2023-05-24T09:47:53;94393.75;;;21.47;57.85
32243;BME280;18731;42.830;24.390;2023-05-24T09:50:19;94382.41;;;21.59;61.16
32243;BME280;18731;42.830;24.390;2023-05-24T09:52:45;94387.34;;;21.71;59.32
32243;BME280;18731;42.830;24.390;2023-05-24T09:55:17;94392.22;;;21.91;62.04
32243;BME280;18731;42.830;24.390;2023-05-24T09:57:49;94377.41;;;21.99;64.22
32243;BME280;18731;42.830;24.390;2023-05-24T10:00:22;94398.22;;;22.16;58.91
32243;BME280;18731;42.830;24.390;2023-05-24T10:03:02;94387.72;;;22.18;55.91
32243;BME280;18731;42.830;24.390;2023-05-24T10:05:29;94384.63;;;22.16;56.03
32243;BME280;18731;42.830;24.390;2023-05-24T10:07:56;94389.28;;;22.19;55.89
32243;BME280;18731;42.830;24.390;2023-05-24T10:10:26;94402.78;;;22.26;54.60
32243;BME280;18731;42.830;24.390;2023-05-24T10:12:52;94395.25;;;22.03;55.23
32243;BME280;18731;42.830;24.390;2023-05-24T10:15:20;94401.25;;;21.80;53.39
32243;BME280;18731;42.830;24.390;2023-05-24T10:17:46;94411.03;;;21.71;53.15
32243;BME280;18731;42.830;24.390;2023-05-24T10:20:11;94412.25;;;21.63;56.08
32243;BME280;18731;42.830;24.390;2023-05-24T10:22:42;94406.56;;;21.46;53.92
32243;BME280;18731;42.830;24.390;2023-05-24T10:25:14;94406.63;;;21.39;54.35
32243;BME280;18731;42.830;24.390;2023-05-24T10:27:43;94398.56;;;21.22;54.92
32243;BME280;18731;42.830;24.390;2023-05-24T10:30:19;94413.66;;;21.30;56.96
32243;BME280;18731;42.830;24.390;2023-05-24T10:32:49;94407.84;;;21.28;57.53
32243;BME280;18731;42.830;24.390;2023-05-24T10:35:17;94409.78;;;21.31;57.76
32243;BME280;18731;42.830;24.390;2023-05-24T10:37:45;94416.75;;;21.32;56.70
32243;BME280;18731;42.830;24.390;2023-05-24T10:40:18;94407.38;;;21.43;58.26
32243;BME280;18731;42.830;24.390;2023-05-24T10:42:45;94405.31;;;21.58;58.07
32243;BME280;18731;42.830;24.390;2023-05-24T10:47:49;94384.94;;;21.80;58.07
32243;BME280;18731;42.830;24.390;2023-05-24T10:50:20;94397.94;;;22.07;57.42
32243;BME280;18731;42.830;24.390;2023-05-24T10:52:49;94390.94;;;22.06;49.91
32243;BME280;18731;42.830;24.390;2023-05-24T10:55:14;94384.59;;;22.20;49.63
32243;BME280;18731;42.830;24.390;2023-05-24T10:57:40;94385.91;;;22.76;49.96
32243;BME280;18731;42.830;24.390;2023-05-24T11:00:26;94390.25;;;23.31;45.58
32243;BME280;18731;42.830;24.390;2023-05-24T11:03:08;94378.34;;;23.48;44.53
32243;BME280;18731;42.830;24.390;2023-05-24T11:08:23;94370.47;;;23.54;39.80
32243;BME280;18731;42.830;24.390;2023-05-24T11:11:10;94384.19;;;23.73;42.94
32243;BME280;18731;42.830;24.390;2023-05-24T11:13:37;94377.31;;;23.65;41.58
32243;BME280;18731;42.830;24.390;2023-05-24T11:16:04;94363.66;;;23.42;40.63
32243;BME280;18731;42.830;24.390;2023-05-24T11:18:31;94383.47;;;23.69;41.61
32243;BME280;18731;42.830;24.390;2023-05-24T11:20:58;94369.66;;;24.03;42.00
32243;BME280;18731;42.830;24.390;2023-05-24T11:23:25;94366.03;;;24.53;41.29
32243;BME280;18731;42.830;24.390;2023-05-24T11:25:54;94361.94;;;24.81;38.47
32243;BME280;18731;42.830;24.390;2023-05-24T11:28:22;94345.84;;;25.23;40.81
32243;BME280;18731;42.830;24.390;2023-05-24T11:30:47;94359.34;;;25.62;33.54
32243;BME280;18731;42.830;24.390;2023-05-24T11:33:16;94350.34;;;25.66;35.79
32243;BME280;18731;42.830;24.390;2023-05-24T11:35:49;94342.38;;;25.39;33.84
32243;BME280;18731;42.830;24.390;2023-05-24T11:38:15;94344.81;;;25.17;35.03
32243;BME280;18731;42.830;24.390;2023-05-24T11:40:42;94346.19;;;25.25;34.84
32243;BME280;18731;42.830;24.390;2023-05-24T11:43:12;94352.59;;;25.18;36.32
32243;BME280;18731;42.830;24.390;2023-05-24T11:45:43;94343.34;;;25.12;38.67
32243;BME280;18731;42.830;24.390;2023-05-24T11:48:10;94332.97;;;24.87;38.62
32243;BME280;18731;42.830;24.390;2023-05-24T11:50:40;94347.22;;;25.15;38.60
32243;BME280;18731;42.830;24.390;2023-05-24T11:53:12;94341.75;;;25.15;36.96
32243;BME280;18731;42.830;24.390;2023-05-24T11:55:39;94343.25;;;24.99;38.53
32243;BME280;18731;42.830;24.390;2023-05-24T11:58:21;94332.72;;;25.34;39.63
32243;BME280;18731;42.830;24.390;2023-05-24T12:00:47;94342.47;;;25.68;36.75
32243;BME280;18731;42.830;24.390;2023-05-24T12:03:13;94340.25;;;25.79;36.81
32243;BME280;18731;42.830;24.390;2023-05-24T12:05:39;94335.59;;;26.08;39.56
32243;BME280;18731;42.830;24.390;2023-05-24T12:08:06;94323.41;;;26.42;38.97
32243;BME280;18731;42.830;24.390;2023-05-24T12:10:36;94328.59;;;26.65;36.33
32243;BME280;18731;42.830;24.390;2023-05-24T12:13:03;94326.78;;;26.87;36.83
32243;BME280;18731;42.830;24.390;2023-05-24T12:15:29;94328.31;;;26.88;35.57
32243;BME280;18731;42.830;24.390;2023-05-24T12:17:56;94311.66;;;26.96;36.50
32243;BME280;18731;42.830;24.390;2023-05-24T12:20:23;94316.31;;;27.11;34.85
32243;BME280;18731;42.830;24.390;2023-05-24T12:22:51;94308.97;;;27.21;34.44
32243;BME280;18731;42.830;24.390;2023-05-24T12:25:18;94295.25;;;27.34;36.17
32243;BME280;18731;42.830;24.390;2023-05-24T12:27:46;94293.16;;;27.50;35.65
32243;BME280;18731;42.830;24.390;2023-05-24T12:30:15;94287.91;;;27.43;32.54
32243;BME280;18731;42.830;24.390;2023-05-24T12:32:50;94289.78;;;27.21;31.60
32243;BME280;18731;42.830;24.390;2023-05-24T12:35:19;94276.53;;;27.07;32.07
32243;BME280;18731;42.830;24.390;2023-05-24T12:37:45;94271.56;;;27.40;33.69
32243;BME280;18731;42.830;24.390;2023-05-24T12:40:20;94273.41;;;27.55;32.35
32243;BME280;18731;42.830;24.390;2023-05-24T12:42:52;94266.53;;;27.26;31.00
32243;BME280;18731;42.830;24.390;2023-05-24T12:45:25;94268.38;;;27.41;31.59
32243;BME280;18731;42.830;24.390;2023-05-24T12:47:53;94272.88;;;27.35;32.24
32243;BME280;18731;42.830;24.390;2023-05-24T12:50:20;94269.66;;;27.75;34.07
32243;BME280;18731;42.830;24.390;2023-05-24T12:52:46;94275.03;;;28.00;34.60
32243;BME280;18731;42.830;24.390;2023-05-24T12:55:16;94276.56;;;28.01;31.56
32243;BME280;18731;42.830;24.390;2023-05-24T12:57:42;94264.16;;;27.75;32.29
32243;BME280;18731;42.830;24.390;2023-05-24T13:00:11;94268.25;;;27.58;32.91
32243;BME280;18731;42.830;24.390;2023-05-24T13:02:39;94268.06;;;27.27;32.78
32243;BME280;18731;42.830;24.390;2023-05-24T13:05:06;94280.03;;;27.20;36.72
32243;BME280;18731;42.830;24.390;2023-05-24T13:07:32;94265.91;;;27.09;35.72
32243;BME280;18731;42.830;24.390;2023-05-24T13:09:58;94262.25;;;27.37;32.57
32243;BME280;18731;42.830;24.390;2023-05-24T13:12:24;94268.16;;;27.48;33.98
32243;BME280;18731;42.830;24.390;2023-05-24T13:14:51;94259.00;;;27.17;33.14
32243;BME280;18731;42.830;24.390;2023-05-24T13:17:18;94276.75;;;27.00;32.79
32243;BME280;18731;42.830;24.390;2023-05-24T13:19:44;94276.16;;;26.92;35.26
32243;BME280;18731;42.830;24.390;2023-05-24T13:22:12;94270.34;;;26.77;35.15
32243;BME280;18731;42.830;24.390;2023-05-24T13:24:38;94272.38;;;27.02;36.23
32243;BME280;18731;42.830;24.390;2023-05-24T13:27:04;94265.88;;;27.21;34.50
32243;BME280;18731;42.830;24.390;2023-05-24T13:29:30;94265.84;;;27.47;34.31
32243;BME280;18731;42.830;24.390;2023-05-24T13:31:56;94271.75;;;27.71;33.71
32243;BME280;18731;42.830;24.390;2023-05-24T13:34:22;94263.03;;;27.85;31.89
32243;BME280;18731;42.830;24.390;2023-05-24T13:36:52;94262.94;;;27.76;30.97
32243;BME280;18731;42.830;24.390;2023-05-24T13:39:19;94271.97;;;27.64;35.67
32243;BME280;18731;42.830;24.390;2023-05-24T13:41:46;94261.94;;;27.22;33.55
32243;BME280;18731;42.830;24.390;2023-05-24T13:44:13;94269.94;;;26.91;34.71
32243;BME280;18731;42.830;24.390;2023-05-24T13:46:39;94261.03;;;26.20;35.39
32243;BME280;18731;42.830;24.390;2023-05-24T13:49:06;94273.53;;;25.76;37.46
32243;BME280;18731;42.830;24.390;2023-05-24T13:51:32;94268.66;;;25.51;38.35
32243;BME280;18731;42.830;24.390;2023-05-24T13:53:58;94266.59;;;24.90;39.92
32243;BME280;18731;42.830;24.390;2023-05-24T13:56:24;94261.50;;;24.56;40.73
32243;BME280;18731;42.830;24.390;2023-05-24T13:58:51;94273.44;;;24.26;40.64
32243;BME280;18731;42.830;24.390;2023-05-24T14:01:16;94263.41;;;24.00;40.88
32243;BME280;18731;42.830;24.390;2023-05-24T14:03:42;94265.28;;;23.83;42.09
32243;BME280;18731;42.830;24.390;2023-05-24T14:06:08;94274.19;;;23.64;42.90
32243;BME280;18731;42.830;24.390;2023-05-24T14:08:34;94282.00;;;23.62;42.96
32243;BME280;18731;42.830;24.390;2023-05-24T14:11:00;94272.38;;;23.57;44.50
32243;BME280;18731;42.830;24.390;2023-05-24T14:13:25;94281.31;;;23.31;42.40
32243;BME280;18731;42.830;24.390;2023-05-24T14:15:51;94279.88;;;23.23;43.67
32243;BME280;18731;42.830;24.390;2023-05-24T14:18:17;94285.00;;;23.44;47.03
32243;BME280;18731;42.830;24.390;2023-05-24T14:20:42;94274.75;;;23.52;49.16
32243;BME280;18731;42.830;24.390;2023-05-24T14:23:08;94274.13;;;23.44;43.79
32243;BME280;18731;42.830;24.390;2023-05-24T14:25:34;94265.63;;;23.38;48.39
32243;BME280;18731;42.830;24.390;2023-05-24T14:28:00;94276.56;;;23.35;48.96
32243;BME280;18731;42.830;24.390;2023-05-24T14:30:30;94265.66;;;23.12;52.11
32243;BME280;18731;42.830;24.390;2023-05-24T14:32:57;94289.09;;;23.05;51.45
32243;BME280;18731;42.830;24.390;2023-05-24T14:35:22;94283.75;;;22.98;50.61
32243;BME280;18731;42.830;24.390;2023-05-24T14:37:48;94283.41;;;22.96;53.66
32243;BME280;18731;42.830;24.390;2023-05-24T14:40:14;94289.63;;;22.97;56.53
32243;BME280;18731;42.830;24.390;2023-05-24T14:42:40;94291.56;;;22.96;52.07
32243;BME280;18731;42.830;24.390;2023-05-24T14:45:06;94288.28;;;22.82;50.68
32243;BME280;18731;42.830;24.390;2023-05-24T14:47:32;94285.97;;;22.80;51.32
32243;BME280;18731;42.830;24.390;2023-05-24T14:49:58;94282.78;;;22.85;51.62
32243;BME280;18731;42.830;24.390;2023-05-24T14:52:23;94291.53;;;22.69;51.08
32243;BME280;18731;42.830;24.390;2023-05-24T14:54:49;94281.88;;;22.65;50.45
32243;BME280;18731;42.830;24.390;2023-05-24T14:57:15;94284.03;;;22.50;48.88
32243;BME280;18731;42.830;24.390;2023-05-24T14:59:41;94285.16;;;22.22;49.11
32243;BME280;18731;42.830;24.390;2023-05-24T15:02:07;94248.38;;;21.76;49.34
32243;BME280;18731;42.830;24.390;2023-05-24T15:04:32;94295.47;;;22.04;49.79
32243;BME280;18731;42.830;24.390;2023-05-24T15:06:58;94297.25;;;21.80;49.53
32243;BME280;18731;42.830;24.390;2023-05-24T15:09:24;94284.78;;;21.45;52.02
32243;BME280;18731;42.830;24.390;2023-05-24T15:11:49;94304.72;;;21.21;54.96
32243;BME280;18731;42.830;24.390;2023-05-24T15:14:15;94299.00;;;21.11;56.91
32243;BME280;18731;42.830;24.390;2023-05-24T15:16:41;94286.31;;;20.94;58.31
32243;BME280;18731;42.830;24.390;2023-05-24T15:19:06;94299.59;;;20.81;60.39
32243;BME280;18731;42.830;24.390;2023-05-24T15:21:34;94297.28;;;20.73;62.65
32243;BME280;18731;42.830;24.390;2023-05-24T15:24:02;94299.75;;;20.49;63.36
32243;BME280;18731;42.830;24.390;2023-05-24T15:26:30;94298.97;;;20.45;63.40
32243;BME280;18731;42.830;24.390;2023-05-24T15:28:57;94297.38;;;20.59;64.99
32243;BME280;18731;42.830;24.390;2023-05-24T15:31:25;94295.41;;;20.59;65.06
32243;BME280;18731;42.830;24.390;2023-05-24T15:33:52;94300.34;;;20.78;64.94
32243;BME280;18731;42.830;24.390;2023-05-24T15:36:18;94296.44;;;20.90;64.17
32243;BME280;18731;42.830;24.390;2023-05-24T15:38:43;94302.94;;;21.00;62.68
32243;BME280;18731;42.830;24.390;2023-05-24T15:41:09;94296.28;;;21.08;63.20
32243;BME280;18731;42.830;24.390;2023-05-24T15:43:35;94291.63;;;21.08;61.61
32243;BME280;18731;42.830;24.390;2023-05-24T15:46:00;94307.94;;;21.05;62.90
32243;BME280;18731;42.830;24.390;2023-05-24T15:48:26;94317.41;;;20.82;64.70
32243;BME280;18731;42.830;24.390;2023-05-24T15:50:52;94304.44;;;20.35;65.80
32243;BME280;18731;42.830;24.390;2023-05-24T15:53:18;94320.72;;;20.28;66.50